sensor_id;sensor_type;location;lat;lon;timestamp;temperature;humidity
9179;DHT22;4624;48.126;11.546;2023-04-06T00:00:10;3.30;66.00
9179;DHT22;4624;48.126;11.546;2023-04-06T00:02:37;3.20;66.00
9179;DHT22;4624;48.126;11.546;2023-04-06T00:05:05;3.20;65.80
9179;DHT22;4624;48.126;11.546;2023-04-06T00:07:33;3.20;65.70
9179;DHT22;4624;48.126;11.546;2023-04-06T00:10:00;3.20;65.50
9179;DHT22;4624;48.126;11.546;2023-04-06T00:12:26;3.10;65.50
9179;DHT22;4624;48.126;11.546;2023-04-06T00:14:55;3.10;65.50
9179;DHT22;4624;48.126;11.546;2023-04-06T00:17:21;3.10;65.70
9179;DHT22;4624;48.126;11.546;2023-04-06T00:19:48;3.00;65.90
9179;DHT22;4624;48.126;11.546;2023-04-06T00:22:15;3.00;65.90
9179;DHT22;4624;48.126;11.546;2023-04-06T00:24:42;2.90;66.20
9179;DHT22;4624;48.126;11.546;2023-04-06T00:27:09;2.90;66.40
9179;DHT22;4624;48.126;11.546;2023-04-06T00:29:36;2.90;66.60
9179;DHT22;4624;48.126;11.546;2023-04-06T00:32:05;2.70;66.50
9179;DHT22;4624;48.126;11.546;2023-04-06T00:34:32;2.70;67.10
9179;DHT22;4624;48.126;11.546;2023-04-06T00:36:59;2.70;67.50
9179;DHT22;4624;48.126;11.546;2023-04-06T00:39:26;2.70;67.60
9179;DHT22;4624;48.126;11.546;2023-04-06T00:41:53;2.60;67.90
9179;DHT22;4624;48.126;11.546;2023-04-06T00:44:21;2.60;68.10
9179;DHT22;4624;48.126;11.546;2023-04-06T00:46:48;2.50;68.50
9179;DHT22;4624;48.126;11.546;2023-04-06T00:49:17;2.40;69.00
9179;DHT22;4624;48.126;11.546;2023-04-06T00:51:43;2.40;69.30
9179;DHT22;4624;48.126;11.546;2023-04-06T00:54:10;2.40;69.80
9179;DHT22;4624;48.126;11.546;2023-04-06T00:56:37;2.40;70.50
9179;DHT22;4624;48.126;11.546;2023-04-06T00:59:04;2.50;71.10
9179;DHT22;4624;48.126;11.546;2023-04-06T01:01:31;2.40;71.40
9179;DHT22;4624;48.126;11.546;2023-04-06T01:03:58;2.40;71.60
9179;DHT22;4624;48.126;11.546;2023-04-06T01:06:27;2.40;71.80
9179;DHT22;4624;48.126;11.546;2023-04-06T01:08:54;2.40;71.90
9179;DHT22;4624;48.126;11.546;2023-04-06T01:11:21;2.40;72.00
9179;DHT22;4624;48.126;11.546;2023-04-06T01:13:48;2.40;72.50
9179;DHT22;4624;48.126;11.546;2023-04-06T01:16:15;2.30;72.50
9179;DHT22;4624;48.126;11.546;2023-04-06T01:18:42;2.30;72.80
9179;DHT22;4624;48.126;11.546;2023-04-06T01:21:09;2.20;73.00
9179;DHT22;4624;48.126;11.546;2023-04-06T01:23:43;2.30;73.50
9179;DHT22;4624;48.126;11.546;2023-04-06T01:26:10;2.20;73.60
9179;DHT22;4624;48.126;11.546;2023-04-06T01:28:37;2.20;73.70
9179;DHT22;4624;48.126;11.546;2023-04-06T01:31:06;2.10;73.90
9179;DHT22;4624;48.126;11.546;2023-04-06T01:33:33;1.90;74.20
9179;DHT22;4624;48.126;11.546;2023-04-06T01:36:00;1.90;74.30
9179;DHT22;4624;48.126;11.546;2023-04-06T01:38:27;1.90;75.10
9179;DHT22;4624;48.126;11.546;2023-04-06T01:40:55;1.90;75.70
9179;DHT22;4624;48.126;11.546;2023-04-06T01:43:22;1.90;76.40
9179;DHT22;4624;48.126;11.546;2023-04-06T01:45:49;2.00;76.90
9179;DHT22;4624;48.126;11.546;2023-04-06T01:48:16;2.10;77.40
9179;DHT22;4624;48.126;11.546;2023-04-06T01:50:43;2.10;77.20
9179;DHT22;4624;48.126;11.546;2023-04-06T01:53:10;2.10;77.10
9179;DHT22;4624;48.126;11.546;2023-04-06T01:55:37;2.00;77.60
9179;DHT22;4624;48.126;11.546;2023-04-06T01:58:05;2.00;77.20
9179;DHT22;4624;48.126;11.546;2023-04-06T02:00:32;2.00;77.30
9179;DHT22;4624;48.126;11.546;2023-04-06T02:02:59;2.00;77.40
9179;DHT22;4624;48.126;11.546;2023-04-06T02:05:27;1.90;77.40
9179;DHT22;4624;48.126;11.546;2023-04-06T02:07:54;1.90;77.70
9179;DHT22;4624;48.126;11.546;2023-04-06T02:10:22;1.90;78.10
9179;DHT22;4624;48.126;11.546;2023-04-06T02:12:49;2.00;78.40
9179;DHT22;4624;48.126;11.546;2023-04-06T02:15:17;2.00;78.60
9179;DHT22;4624;48.126;11.546;2023-04-06T02:17:44;2.00;78.80
9179;DHT22;4624;48.126;11.546;2023-04-06T02:20:11;2.10;80.00
9179;DHT22;4624;48.126;11.546;2023-04-06T02:22:38;2.00;79.40
9179;DHT22;4624;48.126;11.546;2023-04-06T02:25:06;2.00;79.60
9179;DHT22;4624;48.126;11.546;2023-04-06T02:27:33;2.00;79.60
9179;DHT22;4624;48.126;11.546;2023-04-06T02:30:00;2.10;79.80
9179;DHT22;4624;48.126;11.546;2023-04-06T02:32:28;2.10;80.00
9179;DHT22;4624;48.126;11.546;2023-04-06T02:34:55;2.10;79.90
9179;DHT22;4624;48.126;11.546;2023-04-06T02:37:22;2.10;79.70
9179;DHT22;4624;48.126;11.546;2023-04-06T02:39:49;2.10;79.70
9179;DHT22;4624;48.126;11.546;2023-04-06T02:42:16;2.10;79.60
9179;DHT22;4624;48.126;11.546;2023-04-06T02:44:43;2.00;79.60
9179;DHT22;4624;48.126;11.546;2023-04-06T02:47:10;2.00;79.50
9179;DHT22;4624;48.126;11.546;2023-04-06T02:49:38;2.00;79.60
9179;DHT22;4624;48.126;11.546;2023-04-06T02:52:05;1.90;79.40
9179;DHT22;4624;48.126;11.546;2023-04-06T02:54:32;1.90;79.70
9179;DHT22;4624;48.126;11.546;2023-04-06T02:56:59;1.90;79.80
9179;DHT22;4624;48.126;11.546;2023-04-06T02:59:26;2.00;80.10
9179;DHT22;4624;48.126;11.546;2023-04-06T03:01:53;2.00;80.20
9179;DHT22;4624;48.126;11.546;2023-04-06T03:04:19;2.00;80.10
9179;DHT22;4624;48.126;11.546;2023-04-06T03:06:49;2.00;80.10
9179;DHT22;4624;48.126;11.546;2023-04-06T03:09:16;2.00;80.20
9179;DHT22;4624;48.126;11.546;2023-04-06T03:11:43;2.10;80.10
9179;DHT22;4624;48.126;11.546;2023-04-06T03:14:10;2.00;80.00
9179;DHT22;4624;48.126;11.546;2023-04-06T03:16:37;2.00;79.70
9179;DHT22;4624;48.126;11.546;2023-04-06T03:19:04;2.00;80.20
9179;DHT22;4624;48.126;11.546;2023-04-06T03:21:31;1.90;79.30
9179;DHT22;4624;48.126;11.546;2023-04-06T03:23:59;1.90;79.60
9179;DHT22;4624;48.126;11.546;2023-04-06T03:26:26;1.80;79.30
9179;DHT22;4624;48.126;11.546;2023-04-06T03:28:53;1.70;79.30
9179;DHT22;4624;48.126;11.546;2023-04-06T03:31:19;1.70;79.80
9179;DHT22;4624;48.126;11.546;2023-04-06T03:33:46;1.70;79.80
9179;DHT22;4624;48.126;11.546;2023-04-06T03:36:13;1.60;79.70
9179;DHT22;4624;48.126;11.546;2023-04-06T03:38:40;1.60;79.70
9179;DHT22;4624;48.126;11.546;2023-04-06T03:41:08;1.40;79.90
9179;DHT22;4624;48.126;11.546;2023-04-06T03:43:35;1.50;80.30
9179;DHT22;4624;48.126;11.546;2023-04-06T03:46:02;1.40;80.60
9179;DHT22;4624;48.126;11.546;2023-04-06T03:48:29;1.50;80.70
9179;DHT22;4624;48.126;11.546;2023-04-06T03:50:56;1.50;80.90
9179;DHT22;4624;48.126;11.546;2023-04-06T03:53:22;1.50;81.10
9179;DHT22;4624;48.126;11.546;2023-04-06T03:55:49;1.40;81.30
9179;DHT22;4624;48.126;11.546;2023-04-06T03:58:17;1.40;81.30
9179;DHT22;4624;48.126;11.546;2023-04-06T04:00:44;1.50;81.60
9179;DHT22;4624;48.126;11.546;2023-04-06T04:03:11;1.50;81.60
9179;DHT22;4624;48.126;11.546;2023-04-06T04:05:38;1.50;81.80
9179;DHT22;4624;48.126;11.546;2023-04-06T04:08:05;1.60;82.10
9179;DHT22;4624;48.126;11.546;2023-04-06T04:10:32;1.60;82.20
9179;DHT22;4624;48.126;11.546;2023-04-06T04:12:59;1.60;82.30
9179;DHT22;4624;48.126;11.546;2023-04-06T04:15:27;1.60;82.40
9179;DHT22;4624;48.126;11.546;2023-04-06T04:17:54;1.60;82.50
9179;DHT22;4624;48.126;11.546;2023-04-06T04:20:21;1.60;82.70
9179;DHT22;4624;48.126;11.546;2023-04-06T04:22:48;1.60;82.60
9179;DHT22;4624;48.126;11.546;2023-04-06T04:25:15;1.70;82.60
9179;DHT22;4624;48.126;11.546;2023-04-06T04:27:42;1.70;82.60
9179;DHT22;4624;48.126;11.546;2023-04-06T04:30:09;1.70;82.50
9179;DHT22;4624;48.126;11.546;2023-04-06T04:32:37;1.60;82.50
9179;DHT22;4624;48.126;11.546;2023-04-06T04:35:04;1.60;82.70
9179;DHT22;4624;48.126;11.546;2023-04-06T04:37:31;1.70;82.70
9179;DHT22;4624;48.126;11.546;2023-04-06T04:40:00;1.60;82.60
9179;DHT22;4624;48.126;11.546;2023-04-06T04:42:27;1.50;82.50
9179;DHT22;4624;48.126;11.546;2023-04-06T04:44:53;1.50;82.80
9179;DHT22;4624;48.126;11.546;2023-04-06T04:47:20;1.50;83.20
9179;DHT22;4624;48.126;11.546;2023-04-06T04:49:48;1.50;83.00
9179;DHT22;4624;48.126;11.546;2023-04-06T04:52:15;1.50;82.80
9179;DHT22;4624;48.126;11.546;2023-04-06T04:54:42;1.40;82.80
9179;DHT22;4624;48.126;11.546;2023-04-06T04:57:09;1.30;82.70
9179;DHT22;4624;48.126;11.546;2023-04-06T04:59:36;1.30;82.90
9179;DHT22;4624;48.126;11.546;2023-04-06T05:02:03;1.40;83.20
9179;DHT22;4624;48.126;11.546;2023-04-06T05:04:30;1.40;83.30
9179;DHT22;4624;48.126;11.546;2023-04-06T05:07:05;1.40;83.50
9179;DHT22;4624;48.126;11.546;2023-04-06T05:09:32;1.40;83.60
9179;DHT22;4624;48.126;11.546;2023-04-06T05:11:59;1.40;83.50
9179;DHT22;4624;48.126;11.546;2023-04-06T05:14:26;1.40;83.50
9179;DHT22;4624;48.126;11.546;2023-04-06T05:16:53;1.50;83.60
9179;DHT22;4624;48.126;11.546;2023-04-06T05:19:20;1.60;83.60
9179;DHT22;4624;48.126;11.546;2023-04-06T05:21:47;1.60;83.60
9179;DHT22;4624;48.126;11.546;2023-04-06T05:24:15;1.70;83.60
9179;DHT22;4624;48.126;11.546;2023-04-06T05:26:42;1.80;83.60
9179;DHT22;4624;48.126;11.546;2023-04-06T05:29:10;1.80;83.40
9179;DHT22;4624;48.126;11.546;2023-04-06T05:31:37;1.90;83.30
9179;DHT22;4624;48.126;11.546;2023-04-06T05:34:04;2.00;83.30
9179;DHT22;4624;48.126;11.546;2023-04-06T05:36:30;2.10;83.20
9179;DHT22;4624;48.126;11.546;2023-04-06T05:38:58;2.20;83.10
9179;DHT22;4624;48.126;11.546;2023-04-06T05:41:26;2.20;83.00
9179;DHT22;4624;48.126;11.546;2023-04-06T05:43:53;2.30;82.70
9179;DHT22;4624;48.126;11.546;2023-04-06T05:46:21;2.40;82.60
9179;DHT22;4624;48.126;11.546;2023-04-06T05:48:47;2.40;82.30
9179;DHT22;4624;48.126;11.546;2023-04-06T05:51:14;2.50;82.40
9179;DHT22;4624;48.126;11.546;2023-04-06T05:53:41;2.50;82.00
9179;DHT22;4624;48.126;11.546;2023-04-06T05:56:08;2.60;81.90
9179;DHT22;4624;48.126;11.546;2023-04-06T05:58:37;2.50;81.70
9179;DHT22;4624;48.126;11.546;2023-04-06T06:01:04;2.60;81.80
9179;DHT22;4624;48.126;11.546;2023-04-06T06:03:31;2.60;82.30
9179;DHT22;4624;48.126;11.546;2023-04-06T06:06:00;2.60;81.40
9179;DHT22;4624;48.126;11.546;2023-04-06T06:08:27;2.70;81.30
9179;DHT22;4624;48.126;11.546;2023-04-06T06:10:54;2.80;81.20
9179;DHT22;4624;48.126;11.546;2023-04-06T06:13:21;3.00;81.10
9179;DHT22;4624;48.126;11.546;2023-04-06T06:15:49;3.20;80.90
9179;DHT22;4624;48.126;11.546;2023-04-06T06:18:16;3.30;80.50
9179;DHT22;4624;48.126;11.546;2023-04-06T06:20:43;3.50;80.30
9179;DHT22;4624;48.126;11.546;2023-04-06T06:23:10;3.70;80.50
9179;DHT22;4624;48.126;11.546;2023-04-06T06:25:37;4.00;80.90
9179;DHT22;4624;48.126;11.546;2023-04-06T06:28:04;4.20;80.70
9179;DHT22;4624;48.126;11.546;2023-04-06T06:30:31;4.50;80.70
9179;DHT22;4624;48.126;11.546;2023-04-06T06:32:59;4.80;80.20
9179;DHT22;4624;48.126;11.546;2023-04-06T06:35:26;5.10;79.90
9179;DHT22;4624;48.126;11.546;2023-04-06T06:37:53;5.40;79.60
9179;DHT22;4624;48.126;11.546;2023-04-06T06:40:20;5.70;78.70
9179;DHT22;4624;48.126;11.546;2023-04-06T06:42:49;5.90;78.60
9179;DHT22;4624;48.126;11.546;2023-04-06T06:45:16;6.20;77.00
9179;DHT22;4624;48.126;11.546;2023-04-06T06:47:44;6.50;75.90
9179;DHT22;4624;48.126;11.546;2023-04-06T06:50:12;6.70;75.70
9179;DHT22;4624;48.126;11.546;2023-04-06T06:52:39;6.90;74.20
9179;DHT22;4624;48.126;11.546;2023-04-06T06:55:08;7.10;73.50
9179;DHT22;4624;48.126;11.546;2023-04-06T06:57:35;7.20;72.60
9179;DHT22;4624;48.126;11.546;2023-04-06T07:00:04;7.30;71.80
9179;DHT22;4624;48.126;11.546;2023-04-06T07:02:34;7.50;70.90
9179;DHT22;4624;48.126;11.546;2023-04-06T07:05:02;7.70;69.20
9179;DHT22;4624;48.126;11.546;2023-04-06T07:07:32;7.90;68.80
9179;DHT22;4624;48.126;11.546;2023-04-06T07:09:59;8.30;68.20
9179;DHT22;4624;48.126;11.546;2023-04-06T07:12:26;8.60;67.30
9179;DHT22;4624;48.126;11.546;2023-04-06T07:14:53;8.60;65.00
9179;DHT22;4624;48.126;11.546;2023-04-06T07:17:20;8.50;63.60
9179;DHT22;4624;48.126;11.546;2023-04-06T07:19:47;8.40;63.00
9179;DHT22;4624;48.126;11.546;2023-04-06T07:22:13;8.20;61.90
9179;DHT22;4624;48.126;11.546;2023-04-06T07:24:42;8.20;61.60
9179;DHT22;4624;48.126;11.546;2023-04-06T07:27:09;8.40;61.90
9179;DHT22;4624;48.126;11.546;2023-04-06T07:29:35;8.50;61.20
9179;DHT22;4624;48.126;11.546;2023-04-06T07:32:02;8.50;60.50
9179;DHT22;4624;48.126;11.546;2023-04-06T07:34:29;8.60;60.50
9179;DHT22;4624;48.126;11.546;2023-04-06T07:36:56;8.90;60.30
9179;DHT22;4624;48.126;11.546;2023-04-06T07:39:25;9.10;60.00
9179;DHT22;4624;48.126;11.546;2023-04-06T07:41:53;9.40;59.80
9179;DHT22;4624;48.126;11.546;2023-04-06T07:44:20;9.80;59.10
9179;DHT22;4624;48.126;11.546;2023-04-06T07:46:47;10.20;57.70
9179;DHT22;4624;48.126;11.546;2023-04-06T07:49:14;10.40;56.90
9179;DHT22;4624;48.126;11.546;2023-04-06T07:51:41;10.50;56.00
9179;DHT22;4624;48.126;11.546;2023-04-06T07:54:08;10.40;55.20
9179;DHT22;4624;48.126;11.546;2023-04-06T07:56:34;10.20;54.50
9179;DHT22;4624;48.126;11.546;2023-04-06T07:59:03;10.40;54.60
9179;DHT22;4624;48.126;11.546;2023-04-06T08:01:29;10.80;54.20
9179;DHT22;4624;48.126;11.546;2023-04-06T08:03:57;11.20;52.90
9179;DHT22;4624;48.126;11.546;2023-04-06T08:06:24;11.60;51.50
9179;DHT22;4624;48.126;11.546;2023-04-06T08:08:51;12.30;50.70
9179;DHT22;4624;48.126;11.546;2023-04-06T08:11:18;13.50;48.50
9179;DHT22;4624;48.126;11.546;2023-04-06T08:13:45;14.20;46.50
9179;DHT22;4624;48.126;11.546;2023-04-06T08:16:13;14.40;45.80
9179;DHT22;4624;48.126;11.546;2023-04-06T08:18:40;14.20;44.70
9179;DHT22;4624;48.126;11.546;2023-04-06T08:21:07;14.40;45.60
9179;DHT22;4624;48.126;11.546;2023-04-06T08:23:34;14.40;45.30
9179;DHT22;4624;48.126;11.546;2023-04-06T08:26:01;14.80;44.40
9179;DHT22;4624;48.126;11.546;2023-04-06T08:28:28;15.10;43.30
9179;DHT22;4624;48.126;11.546;2023-04-06T08:30:55;15.10;41.80
9179;DHT22;4624;48.126;11.546;2023-04-06T08:33:23;15.20;41.00
9179;DHT22;4624;48.126;11.546;2023-04-06T08:35:50;15.10;40.60
9179;DHT22;4624;48.126;11.546;2023-04-06T08:38:17;15.00;41.20
9179;DHT22;4624;48.126;11.546;2023-04-06T08:40:44;14.80;40.30
9179;DHT22;4624;48.126;11.546;2023-04-06T08:43:14;14.80;40.80
9179;DHT22;4624;48.126;11.546;2023-04-06T08:45:41;15.10;40.60
9179;DHT22;4624;48.126;11.546;2023-04-06T08:48:09;15.30;40.00
9179;DHT22;4624;48.126;11.546;2023-04-06T08:50:38;15.40;39.70
9179;DHT22;4624;48.126;11.546;2023-04-06T08:53:06;15.60;39.10
9179;DHT22;4624;48.126;11.546;2023-04-06T08:55:34;16.00;39.40
9179;DHT22;4624;48.126;11.546;2023-04-06T08:58:01;16.40;39.00
9179;DHT22;4624;48.126;11.546;2023-04-06T09:00:29;16.80;38.70
9179;DHT22;4624;48.126;11.546;2023-04-06T09:02:57;17.30;37.80
9179;DHT22;4624;48.126;11.546;2023-04-06T09:05:25;17.40;36.60
9179;DHT22;4624;48.126;11.546;2023-04-06T09:07:54;17.60;36.50
9179;DHT22;4624;48.126;11.546;2023-04-06T09:10:21;18.00;36.30
9179;DHT22;4624;48.126;11.546;2023-04-06T09:12:49;18.50;36.40
9179;DHT22;4624;48.126;11.546;2023-04-06T09:15:20;18.90;36.10
9179;DHT22;4624;48.126;11.546;2023-04-06T09:17:46;19.40;36.20
9179;DHT22;4624;48.126;11.546;2023-04-06T09:20:13;19.80;36.10
9179;DHT22;4624;48.126;11.546;2023-04-06T09:22:42;20.00;34.80
9179;DHT22;4624;48.126;11.546;2023-04-06T09:25:18;20.10;34.00
9179;DHT22;4624;48.126;11.546;2023-04-06T09:27:46;20.40;33.50
9179;DHT22;4624;48.126;11.546;2023-04-06T09:30:13;20.70;33.10
9179;DHT22;4624;48.126;11.546;2023-04-06T09:32:46;21.00;32.50
9179;DHT22;4624;48.126;11.546;2023-04-06T09:35:14;21.00;32.50
9179;DHT22;4624;48.126;11.546;2023-04-06T09:37:41;21.20;32.70
9179;DHT22;4624;48.126;11.546;2023-04-06T09:40:10;21.50;31.60
9179;DHT22;4624;48.126;11.546;2023-04-06T09:42:41;22.00;31.50
9179;DHT22;4624;48.126;11.546;2023-04-06T09:45:08;22.40;31.10
9179;DHT22;4624;48.126;11.546;2023-04-06T09:47:36;22.40;30.70
9179;DHT22;4624;48.126;11.546;2023-04-06T09:50:07;22.60;29.70
9179;DHT22;4624;48.126;11.546;2023-04-06T09:52:38;23.00;29.90
9179;DHT22;4624;48.126;11.546;2023-04-06T09:55:08;23.50;29.70
9179;DHT22;4624;48.126;11.546;2023-04-06T09:57:44;22.50;29.50
9179;DHT22;4624;48.126;11.546;2023-04-06T10:00:14;21.10;29.40
9179;DHT22;4624;48.126;11.546;2023-04-06T10:02:50;19.70;29.80
9179;DHT22;4624;48.126;11.546;2023-04-06T10:05:22;18.60;30.80
9179;DHT22;4624;48.126;11.546;2023-04-06T10:07:55;17.50;30.50
9179;DHT22;4624;48.126;11.546;2023-04-06T10:10:22;16.60;31.10
9179;DHT22;4624;48.126;11.546;2023-04-06T10:12:51;15.90;31.70
9179;DHT22;4624;48.126;11.546;2023-04-06T10:15:18;16.30;33.10
9179;DHT22;4624;48.126;11.546;2023-04-06T10:17:45;18.10;32.70
9179;DHT22;4624;48.126;11.546;2023-04-06T10:20:16;19.70;31.60
9179;DHT22;4624;48.126;11.546;2023-04-06T10:22:52;20.10;30.50
9179;DHT22;4624;48.126;11.546;2023-04-06T10:25:27;21.00;30.20
9179;DHT22;4624;48.126;11.546;2023-04-06T10:28:00;22.40;30.10
9179;DHT22;4624;48.126;11.546;2023-04-06T10:30:28;23.70;30.00
9179;DHT22;4624;48.126;11.546;2023-04-06T10:32:55;24.20;28.80
9179;DHT22;4624;48.126;11.546;2023-04-06T10:35:22;23.00;28.20
9179;DHT22;4624;48.126;11.546;2023-04-06T10:37:52;21.20;28.50
9179;DHT22;4624;48.126;11.546;2023-04-06T10:40:23;19.60;28.90
9179;DHT22;4624;48.126;11.546;2023-04-06T10:42:51;18.20;30.00
9179;DHT22;4624;48.126;11.546;2023-04-06T10:45:24;17.30;30.40
9179;DHT22;4624;48.126;11.546;2023-04-06T10:47:52;17.20;31.50
9179;DHT22;4624;48.126;11.546;2023-04-06T10:50:20;18.40;31.40
9179;DHT22;4624;48.126;11.546;2023-04-06T10:52:47;20.30;31.80
9179;DHT22;4624;48.126;11.546;2023-04-06T10:55:25;22.30;30.00
9179;DHT22;4624;48.126;11.546;2023-04-06T10:57:52;23.60;29.10
9179;DHT22;4624;48.126;11.546;2023-04-06T11:00:20;24.10;28.60
9179;DHT22;4624;48.126;11.546;2023-04-06T11:02:48;25.20;28.00
9179;DHT22;4624;48.126;11.546;2023-04-06T11:05:15;25.90;26.90
9179;DHT22;4624;48.126;11.546;2023-04-06T11:07:44;26.30;26.80
9179;DHT22;4624;48.126;11.546;2023-04-06T11:10:11;27.10;26.60
9179;DHT22;4624;48.126;11.546;2023-04-06T11:12:38;26.70;26.30
9179;DHT22;4624;48.126;11.546;2023-04-06T11:15:06;26.50;26.10
9179;DHT22;4624;48.126;11.546;2023-04-06T11:17:34;24.80;26.10
9179;DHT22;4624;48.126;11.546;2023-04-06T11:20:09;25.00;26.40
9179;DHT22;4624;48.126;11.546;2023-04-06T11:22:36;25.60;25.80
9179;DHT22;4624;48.126;11.546;2023-04-06T11:25:06;25.00;25.90
9179;DHT22;4624;48.126;11.546;2023-04-06T11:27:33;24.40;25.70
9179;DHT22;4624;48.126;11.546;2023-04-06T11:30:01;24.40;26.00
9179;DHT22;4624;48.126;11.546;2023-04-06T11:32:28;23.00;26.00
9179;DHT22;4624;48.126;11.546;2023-04-06T11:34:58;23.50;26.70
9179;DHT22;4624;48.126;11.546;2023-04-06T11:37:27;25.40;26.80
9179;DHT22;4624;48.126;11.546;2023-04-06T11:39:54;26.90;26.30
9179;DHT22;4624;48.126;11.546;2023-04-06T11:42:23;28.00;25.70
9179;DHT22;4624;48.126;11.546;2023-04-06T11:44:50;28.40;24.90
9179;DHT22;4624;48.126;11.546;2023-04-06T11:47:19;28.90;24.80
9179;DHT22;4624;48.126;11.546;2023-04-06T11:49:47;28.80;24.20
9179;DHT22;4624;48.126;11.546;2023-04-06T11:52:16;28.10;24.40
9179;DHT22;4624;48.126;11.546;2023-04-06T11:54:45;26.00;24.50
9179;DHT22;4624;48.126;11.546;2023-04-06T11:57:12;23.90;25.40
9179;DHT22;4624;48.126;11.546;2023-04-06T11:59:40;23.00;26.30
9179;DHT22;4624;48.126;11.546;2023-04-06T12:02:07;23.90;26.60
9179;DHT22;4624;48.126;11.546;2023-04-06T12:04:33;25.10;26.10
9179;DHT22;4624;48.126;11.546;2023-04-06T12:07:01;24.20;26.30
9179;DHT22;4624;48.126;11.546;2023-04-06T12:09:28;22.30;26.20
9179;DHT22;4624;48.126;11.546;2023-04-06T12:11:56;21.20;27.10
9179;DHT22;4624;48.126;11.546;2023-04-06T12:14:23;21.00;27.60
9179;DHT22;4624;48.126;11.546;2023-04-06T12:16:50;22.00;27.40
9179;DHT22;4624;48.126;11.546;2023-04-06T12:19:17;22.60;27.00
9179;DHT22;4624;48.126;11.546;2023-04-06T12:21:44;22.70;27.20
9179;DHT22;4624;48.126;11.546;2023-04-06T12:24:11;22.50;27.10
9179;DHT22;4624;48.126;11.546;2023-04-06T12:26:38;21.10;27.10
9179;DHT22;4624;48.126;11.546;2023-04-06T12:29:08;19.90;28.00
9179;DHT22;4624;48.126;11.546;2023-04-06T12:31:35;18.90;28.30
9179;DHT22;4624;48.126;11.546;2023-04-06T12:34:04;18.20;28.80
9179;DHT22;4624;48.126;11.546;2023-04-06T12:36:31;17.40;29.00
9179;DHT22;4624;48.126;11.546;2023-04-06T12:38:58;16.90;29.30
9179;DHT22;4624;48.126;11.546;2023-04-06T12:41:25;16.30;29.50
9179;DHT22;4624;48.126;11.546;2023-04-06T12:43:52;15.80;30.00
9179;DHT22;4624;48.126;11.546;2023-04-06T12:46:21;15.60;30.90
9179;DHT22;4624;48.126;11.546;2023-04-06T12:48:48;15.30;31.10
9179;DHT22;4624;48.126;11.546;2023-04-06T12:51:15;15.10;30.80
9179;DHT22;4624;48.126;11.546;2023-04-06T12:53:42;14.90;30.90
9179;DHT22;4624;48.126;11.546;2023-04-06T12:56:14;14.70;31.00
9179;DHT22;4624;48.126;11.546;2023-04-06T12:58:41;14.50;30.80
9179;DHT22;4624;48.126;11.546;2023-04-06T13:01:08;14.00;30.80
9179;DHT22;4624;48.126;11.546;2023-04-06T13:03:36;13.90;31.80
9179;DHT22;4624;48.126;11.546;2023-04-06T13:06:03;13.90;32.70
9179;DHT22;4624;48.126;11.546;2023-04-06T13:08:30;13.90;33.20
9179;DHT22;4624;48.126;11.546;2023-04-06T13:10:57;13.70;33.70
9179;DHT22;4624;48.126;11.546;2023-04-06T13:13:25;13.70;34.00
9179;DHT22;4624;48.126;11.546;2023-04-06T13:15:52;13.60;34.70
9179;DHT22;4624;48.126;11.546;2023-04-06T13:18:19;13.60;34.20
9179;DHT22;4624;48.126;11.546;2023-04-06T13:20:48;13.50;34.30
9179;DHT22;4624;48.126;11.546;2023-04-06T13:23:15;13.50;34.30
9179;DHT22;4624;48.126;11.546;2023-04-06T13:25:42;13.60;34.50
9179;DHT22;4624;48.126;11.546;2023-04-06T13:28:09;13.60;34.50
9179;DHT22;4624;48.126;11.546;2023-04-06T13:30:36;13.50;33.90
9179;DHT22;4624;48.126;11.546;2023-04-06T13:33:03;13.60;34.00
9179;DHT22;4624;48.126;11.546;2023-04-06T13:35:31;13.60;34.10
9179;DHT22;4624;48.126;11.546;2023-04-06T13:37:59;13.60;34.10
9179;DHT22;4624;48.126;11.546;2023-04-06T13:40:26;13.60;34.70
9179;DHT22;4624;48.126;11.546;2023-04-06T13:42:53;13.70;35.20
9179;DHT22;4624;48.126;11.546;2023-04-06T13:45:20;13.70;35.00
9179;DHT22;4624;48.126;11.546;2023-04-06T13:47:47;13.70;35.20
9179;DHT22;4624;48.126;11.546;2023-04-06T13:50:14;13.60;35.10
9179;DHT22;4624;48.126;11.546;2023-04-06T13:52:41;13.50;34.70
9179;DHT22;4624;48.126;11.546;2023-04-06T13:55:09;13.40;34.60
9179;DHT22;4624;48.126;11.546;2023-04-06T13:57:35;13.40;34.80
9179;DHT22;4624;48.126;11.546;2023-04-06T14:00:03;13.30;34.70
9179;DHT22;4624;48.126;11.546;2023-04-06T14:02:30;13.20;35.00
9179;DHT22;4624;48.126;11.546;2023-04-06T14:04:57;13.10;35.10
9179;DHT22;4624;48.126;11.546;2023-04-06T14:07:24;13.00;35.40
9179;DHT22;4624;48.126;11.546;2023-04-06T14:09:51;13.00;35.90
9179;DHT22;4624;48.126;11.546;2023-04-06T14:12:19;13.10;36.20
9179;DHT22;4624;48.126;11.546;2023-04-06T14:14:46;13.10;36.30
9179;DHT22;4624;48.126;11.546;2023-04-06T14:17:13;13.20;36.20
9179;DHT22;4624;48.126;11.546;2023-04-06T14:19:40;13.20;36.00
9179;DHT22;4624;48.126;11.546;2023-04-06T14:22:07;13.20;35.90
9179;DHT22;4624;48.126;11.546;2023-04-06T14:24:34;13.30;36.30
9179;DHT22;4624;48.126;11.546;2023-04-06T14:27:01;13.10;36.10
9179;DHT22;4624;48.126;11.546;2023-04-06T14:29:30;13.00;36.30
9179;DHT22;4624;48.126;11.546;2023-04-06T14:31:58;12.90;36.10
9179;DHT22;4624;48.126;11.546;2023-04-06T14:34:26;12.80;36.00
9179;DHT22;4624;48.126;11.546;2023-04-06T14:36:52;12.70;36.00
9179;DHT22;4624;48.126;11.546;2023-04-06T14:39:19;12.60;36.20
9179;DHT22;4624;48.126;11.546;2023-04-06T14:41:46;12.50;36.20
9179;DHT22;4624;48.126;11.546;2023-04-06T14:44:14;12.50;36.40
9179;DHT22;4624;48.126;11.546;2023-04-06T14:46:43;12.40;36.50
9179;DHT22;4624;48.126;11.546;2023-04-06T14:49:10;12.30;36.70
9179;DHT22;4624;48.126;11.546;2023-04-06T14:51:36;12.30;36.70
9179;DHT22;4624;48.126;11.546;2023-04-06T14:54:04;12.20;36.80
9179;DHT22;4624;48.126;11.546;2023-04-06T14:56:31;12.10;36.80
9179;DHT22;4624;48.126;11.546;2023-04-06T14:58:58;12.10;36.90
9179;DHT22;4624;48.126;11.546;2023-04-06T15:01:27;12.10;36.80
9179;DHT22;4624;48.126;11.546;2023-04-06T15:03:55;12.10;36.70
9179;DHT22;4624;48.126;11.546;2023-04-06T15:06:21;12.00;36.90
9179;DHT22;4624;48.126;11.546;2023-04-06T15:08:48;12.10;37.30
9179;DHT22;4624;48.126;11.546;2023-04-06T15:11:15;12.10;37.20
9179;DHT22;4624;48.126;11.546;2023-04-06T15:13:42;12.10;37.30
9179;DHT22;4624;48.126;11.546;2023-04-06T15:16:09;12.10;37.40
9179;DHT22;4624;48.126;11.546;2023-04-06T15:18:36;12.10;37.30
9179;DHT22;4624;48.126;11.546;2023-04-06T15:21:04;12.20;37.20
9179;DHT22;4624;48.126;11.546;2023-04-06T15:23:31;12.10;36.60
9179;DHT22;4624;48.126;11.546;2023-04-06T15:26:00;12.20;36.60
9179;DHT22;4624;48.126;11.546;2023-04-06T15:28:27;12.10;36.90
9179;DHT22;4624;48.126;11.546;2023-04-06T15:30:54;12.10;36.30
9179;DHT22;4624;48.126;11.546;2023-04-06T15:33:23;12.10;36.30
9179;DHT22;4624;48.126;11.546;2023-04-06T15:35:50;12.00;36.20
9179;DHT22;4624;48.126;11.546;2023-04-06T15:38:18;11.90;36.20
9179;DHT22;4624;48.126;11.546;2023-04-06T15:40:47;11.80;35.80
9179;DHT22;4624;48.126;11.546;2023-04-06T15:43:15;11.80;36.10
9179;DHT22;4624;48.126;11.546;2023-04-06T15:45:42;11.80;36.10
9179;DHT22;4624;48.126;11.546;2023-04-06T15:48:08;11.80;36.10
9179;DHT22;4624;48.126;11.546;2023-04-06T15:50:36;11.90;36.10
9179;DHT22;4624;48.126;11.546;2023-04-06T15:53:02;11.90;36.10
9179;DHT22;4624;48.126;11.546;2023-04-06T15:55:31;11.90;36.10